Time;durP1;ratioP1;P1;durP2;ratioP2;P2;SDS_P1;SDS_P2;PMS_P1;PMS_P2;Temp;Humidity;BMP_temperature;BMP_pressure;BME280_temperature;BME280_humidity;BME280_pressure;Samples;Min_cycle;Max_cycle;Signal;HPM_P1;HPM_P2
2023/03/11 00:00:53;;;;;;;2.97;2.20;;;;;;;;;;5016417;28;20525;-61
2023/03/11 00:03:21;;;;;;;2.58;1.90;;;;;;;;;;5017918;28;20951;-60
2023/03/11 00:05:47;;;;;;;4.45;2.53;;;;;;;;;;5022674;28;20029;-63
2023/03/11 00:08:13;;;;;;;3.72;2.40;;;;;;;;;;5016219;28;20041;-61
2023/03/11 00:10:41;;;;;;;3.00;2.23;;;;;;;;;;5021854;28;20025;-60
2023/03/11 00:13:07;;;;;;;2.33;2.10;;;;;;;;;;5014939;28;20033;-61
2023/03/11 00:15:32;;;;;;;5.63;2.50;;;;;;;;;;5017977;28;20037;-62
2023/03/11 00:17:57;;;;;;;3.15;2.20;;;;;;;;;;5021088;28;20107;-62
2023/03/11 00:20:24;;;;;;;2.17;1.83;;;;;;;;;;5015905;28;20533;-63
2023/03/11 00:22:52;;;;;;;2.00;1.70;;;;;;;;;;5020515;28;20033;-62
2023/03/11 00:25:18;;;;;;;3.72;2.13;;;;;;;;;;5016374;28;20570;-61
2023/03/11 00:27:44;;;;;;;2.15;1.95;;;;;;;;;;5014867;28;20033;-61
2023/03/11 00:30:10;;;;;;;3.00;2.08;;;;;;;;;;5022951;28;20029;-59
2023/03/11 00:32:35;;;;;;;2.85;1.80;;;;;;;;;;5018135;28;20028;-59
2023/03/11 00:35:00;;;;;;;2.88;1.90;;;;;;;;;;5021662;28;20034;-60
2023/03/11 00:37:26;;;;;;;4.57;2.22;;;;;;;;;;5018932;28;20055;-61
2023/03/11 00:39:51;;;;;;;2.75;1.95;;;;;;;;;;5014953;28;20031;-63
2023/03/11 00:42:17;;;;;;;3.40;2.25;;;;;;;;;;5017590;28;20591;-63
2023/03/11 00:44:42;;;;;;;4.75;2.10;;;;;;;;;;5012748;28;20494;-59
2023/03/11 00:47:08;;;;;;;4.13;2.15;;;;;;;;;;5023429;28;20029;-58
2023/03/11 00:49:33;;;;;;;6.35;2.35;;;;;;;;;;5008076;28;20128;-61
2023/03/11 00:51:59;;;;;;;2.72;1.83;;;;;;;;;;5013425;28;20052;-61
2023/03/11 00:54:24;;;;;;;3.90;2.10;;;;;;;;;;5021519;28;20044;-62
2023/03/11 00:56:50;;;;;;;2.03;1.67;;;;;;;;;;5017125;28;20017;-60
2023/03/11 00:59:15;;;;;;;4.30;2.60;;;;;;;;;;5022551;28;20087;-59
2023/03/11 01:01:40;;;;;;;3.38;1.98;;;;;;;;;;5030098;28;20049;-60
2023/03/11 01:04:06;;;;;;;4.65;2.50;;;;;;;;;;5024827;28;20040;-60
2023/03/11 01:06:31;;;;;;;3.22;2.08;;;;;;;;;;5021309;28;20119;-61
2023/03/11 01:08:56;;;;;;;2.85;2.28;;;;;;;;;;5016962;28;20394;-62
2023/03/11 01:11:22;;;;;;;3.85;2.58;;;;;;;;;;5017948;28;20030;-61
2023/03/11 01:13:47;;;;;;;3.97;2.08;;;;;;;;;;5015745;28;20095;-59
2023/03/11 01:16:13;;;;;;;2.13;1.80;;;;;;;;;;5016238;28;20509;-61
2023/03/11 01:18:38;;;;;;;3.00;1.85;;;;;;;;;;5018284;28;20039;-60
2023/03/11 01:21:03;;;;;;;2.10;1.60;;;;;;;;;;5015117;28;20017;-61
2023/03/11 01:23:31;;;;;;;1.92;1.77;;;;;;;;;;5020712;28;20934;-63
2023/03/11 01:25:56;;;;;;;1.90;1.70;;;;;;;;;;5013289;28;20418;-60
2023/03/11 01:28:23;;;;;;;3.83;1.85;;;;;;;;;;5014110;28;20042;-63
2023/03/11 01:30:49;;;;;;;1.77;1.65;;;;;;;;;;5019867;28;20029;-64
2023/03/11 01:33:15;;;;;;;2.83;1.88;;;;;;;;;;5014118;28;20057;-61
2023/03/11 01:35:42;;;;;;;2.47;1.50;;;;;;;;;;5029034;28;20025;-63
2023/03/11 01:38:08;;;;;;;4.20;2.05;;;;;;;;;;5008179;28;20025;-64
2023/03/11 01:40:34;;;;;;;2.75;2.00;;;;;;;;;;5012544;28;20521;-63
2023/03/11 01:43:05;;;;;;;2.30;1.65;;;;;;;;;;5019625;28;20032;-62
2023/03/11 01:46:01;;;;;;;3.58;1.95;;;;;;;;;;5011302;28;20048;-61
2023/03/11 01:48:27;;;;;;;2.13;1.50;;;;;;;;;;5013880;28;20037;-58
2023/03/11 01:50:52;;;;;;;1.70;1.60;;;;;;;;;;5023533;28;20079;-58
2023/03/11 01:53:18;;;;;;;2.75;1.58;;;;;;;;;;4998868;28;20546;-62
2023/03/11 01:55:45;;;;;;;2.20;1.65;;;;;;;;;;5001608;28;20418;-61
2023/03/11 01:58:13;;;;;;;2.60;1.58;;;;;;;;;;5028476;28;20441;-59
2023/03/11 02:00:40;;;;;;;3.30;1.60;;;;;;;;;;5028392;28;20483;-62
2023/03/11 02:03:08;;;;;;;3.25;1.60;;;;;;;;;;5021104;28;20025;-60
2023/03/11 02:05:34;;;;;;;1.67;1.48;;;;;;;;;;5021715;28;20041;-59
2023/03/11 02:07:59;;;;;;;5.53;1.75;;;;;;;;;;5016605;28;20481;-66
2023/03/11 02:10:29;;;;;;;1.60;1.48;;;;;;;;;;5020639;28;20469;-63
2023/03/11 02:12:55;;;;;;;2.47;1.42;;;;;;;;;;5013744;28;20486;-62
2023/03/11 02:15:21;;;;;;;1.67;1.50;;;;;;;;;;5018179;28;20051;-63
2023/03/11 02:17:46;;;;;;;3.88;1.77;;;;;;;;;;5013925;28;20040;-61
2023/03/11 02:20:13;;;;;;;2.73;1.50;;;;;;;;;;5014058;28;20116;-59
2023/03/11 02:22:40;;;;;;;4.40;1.80;;;;;;;;;;5006912;28;20037;-61
2023/03/11 02:25:18;;;;;;;8.40;1.85;;;;;;;;;;5009433;28;20033;-59
2023/03/11 02:27:46;;;;;;;4.57;1.60;;;;;;;;;;5018116;28;20033;-61
2023/03/11 02:30:12;;;;;;;2.08;1.50;;;;;;;;;;5024178;28;20525;-60
2023/03/11 02:32:39;;;;;;;2.75;1.58;;;;;;;;;;5014269;28;20021;-60
2023/03/11 02:35:06;;;;;;;6.88;1.80;;;;;;;;;;5022920;28;20095;-59
2023/03/11 02:37:31;;;;;;;1.55;1.45;;;;;;;;;;5015058;28;20660;-59
2023/03/11 02:40:35;;;;;;;4.25;1.60;;;;;;;;;;5020523;28;20025;-64
2023/03/11 02:43:02;;;;;;;2.83;1.80;;;;;;;;;;4998927;28;20116;-62
2023/03/11 02:45:29;;;;;;;3.42;1.83;;;;;;;;;;5013170;28;20482;-61
2023/03/11 02:47:56;;;;;;;2.55;1.80;;;;;;;;;;5011648;28;20464;-59
2023/03/11 02:50:21;;;;;;;4.72;1.80;;;;;;;;;;4993954;28;20037;-60
2023/03/11 02:52:48;;;;;;;4.53;1.77;;;;;;;;;;5015079;28;20375;-61
2023/03/11 02:55:15;;;;;;;4.70;1.80;;;;;;;;;;5017755;28;20491;-62
2023/03/11 02:57:40;;;;;;;5.53;1.70;;;;;;;;;;5015067;28;20026;-58
2023/03/11 03:00:10;;;;;;;2.35;1.65;;;;;;;;;;5017945;28;20033;-63
2023/03/11 03:02:36;;;;;;;3.00;1.70;;;;;;;;;;5023259;28;20473;-65
2023/03/11 03:05:02;;;;;;;2.20;1.63;;;;;;;;;;5012888;28;20025;-61
2023/03/11 03:07:27;;;;;;;2.78;1.63;;;;;;;;;;5020281;28;20393;-61
2023/03/11 03:09:54;;;;;;;1.90;1.43;;;;;;;;;;5011452;28;20068;-61
2023/03/11 03:12:19;;;;;;;2.42;1.70;;;;;;;;;;5020207;28;20119;-61
2023/03/11 03:14:44;;;;;;;5.32;1.98;;;;;;;;;;4999167;28;20520;-62
2023/03/11 03:17:09;;;;;;;4.85;1.80;;;;;;;;;;5012860;28;21374;-61
2023/03/11 03:19:35;;;;;;;2.95;2.05;;;;;;;;;;5021070;28;20032;-60
2023/03/11 03:22:00;;;;;;;3.15;1.70;;;;;;;;;;5011173;28;20024;-60
2023/03/11 03:24:26;;;;;;;4.60;2.00;;;;;;;;;;5018283;28;20517;-64
2023/03/11 03:26:51;;;;;;;3.70;1.70;;;;;;;;;;5027715;28;20040;-63
2023/03/11 03:29:17;;;;;;;6.55;2.03;;;;;;;;;;5027989;28;20036;-60
2023/03/11 03:31:43;;;;;;;4.80;2.05;;;;;;;;;;5020000;28;20037;-61
2023/03/11 03:34:08;;;;;;;3.88;1.73;;;;;;;;;;5010770;28;20033;-64
2023/03/11 03:36:33;;;;;;;6.95;1.95;;;;;;;;;;5015513;28;20140;-60
2023/03/11 03:39:02;;;;;;;4.22;1.80;;;;;;;;;;5009336;28;20866;-63
2023/03/11 03:41:31;;;;;;;6.00;1.83;;;;;;;;;;5011046;28;20025;-64
2023/03/11 03:43:57;;;;;;;5.32;2.08;;;;;;;;;;5018796;28;20449;-63
2023/03/11 03:46:23;;;;;;;4.97;1.75;;;;;;;;;;4994862;28;20481;-63
2023/03/11 03:48:51;;;;;;;3.50;1.80;;;;;;;;;;5017414;28;20112;-66
2023/03/11 03:51:17;;;;;;;5.10;2.00;;;;;;;;;;5017156;28;20466;-60
2023/03/11 03:53:55;;;;;;;5.22;2.03;;;;;;;;;;5013446;28;20044;-61
2023/03/11 03:56:22;;;;;;;3.25;2.05;;;;;;;;;;5017733;28;20157;-61
2023/03/11 03:58:47;;;;;;;3.50;2.00;;;;;;;;;;5011959;28;20025;-62
2023/03/11 04:01:13;;;;;;;4.53;2.20;;;;;;;;;;5012006;28;20055;-64
2023/03/11 04:03:39;;;;;;;3.78;2.20;;;;;;;;;;5015554;28;20088;-61
2023/03/11 04:06:22;;;;;;;4.25;2.03;;;;;;;;;;5028357;28;20025;-62
2023/03/11 04:08:53;;;;;;;4.63;2.03;;;;;;;;;;5018461;28;20384;-64
2023/03/11 04:11:21;;;;;;;6.80;2.10;;;;;;;;;;4994197;28;20032;-62
2023/03/11 04:13:47;;;;;;;5.70;2.42;;;;;;;;;;5016934;28;20041;-62
2023/03/11 04:16:15;;;;;;;6.03;2.42;;;;;;;;;;5020963;28;20057;-64
2023/03/11 04:18:40;;;;;;;4.13;2.22;;;;;;;;;;5013777;28;20030;-64
2023/03/11 04:21:06;;;;;;;5.78;2.20;;;;;;;;;;5020768;28;20032;-60
2023/03/11 04:23:32;;;;;;;5.68;2.70;;;;;;;;;;5017652;28;20319;-60
2023/03/11 04:25:57;;;;;;;4.63;2.17;;;;;;;;;;5015904;28;20036;-64
2023/03/11 04:28:23;;;;;;;6.63;2.25;;;;;;;;;;5023015;28;20076;-60
2023/03/11 04:30:49;;;;;;;5.57;2.13;;;;;;;;;;5017984;28;20075;-59
2023/03/11 04:33:15;;;;;;;8.27;2.60;;;;;;;;;;5016621;28;20045;-65
2023/03/11 04:35:40;;;;;;;3.60;2.00;;;;;;;;;;5019040;28;20045;-61
2023/03/11 04:38:06;;;;;;;3.45;2.10;;;;;;;;;;5016296;28;20112;-63
2023/03/11 04:40:32;;;;;;;6.60;2.22;;;;;;;;;;5038452;28;20490;-60
2023/03/11 04:42:57;;;;;;;3.95;2.00;;;;;;;;;;5016497;28;20026;-65
2023/03/11 04:45:23;;;;;;;3.40;2.00;;;;;;;;;;5026071;28;20482;-62
2023/03/11 04:47:52;;;;;;;3.88;2.10;;;;;;;;;;5028611;28;20479;-61
2023/03/11 04:50:18;;;;;;;4.47;2.10;;;;;;;;;;5015491;28;20124;-61
2023/03/11 04:52:44;;;;;;;5.13;2.00;;;;;;;;;;5015165;28;20039;-61
2023/03/11 04:55:10;;;;;;;4.45;2.20;;;;;;;;;;5009143;28;20037;-64
2023/03/11 04:57:36;;;;;;;11.95;2.20;;;;;;;;;;5015319;28;20119;-61
2023/03/11 05:00:07;;;;;;;6.05;2.35;;;;;;;;;;5021920;28;20029;-65
2023/03/11 05:02:32;;;;;;;5.05;1.98;;;;;;;;;;5009207;28;20037;-61
2023/03/11 05:05:00;;;;;;;3.22;1.75;;;;;;;;;;5019728;28;20124;-60
2023/03/11 05:07:26;;;;;;;6.72;2.10;;;;;;;;;;5017378;28;20036;-60
2023/03/11 05:09:52;;;;;;;5.28;2.00;;;;;;;;;;5017700;28;20572;-61
2023/03/11 05:12:17;;;;;;;10.32;2.35;;;;;;;;;;5001997;28;20041;-61
2023/03/11 05:14:47;;;;;;;6.53;2.20;;;;;;;;;;5012389;28;20128;-60
2023/03/11 05:17:13;;;;;;;4.60;2.00;;;;;;;;;;5004935;28;20029;-62
2023/03/11 05:19:39;;;;;;;4.43;2.30;;;;;;;;;;5015609;28;20022;-60
2023/03/11 05:22:10;;;;;;;4.95;2.20;;;;;;;;;;5029057;28;21195;-61
2023/03/11 05:24:36;;;;;;;8.30;2.30;;;;;;;;;;5003304;28;20040;-59
2023/03/11 05:27:02;;;;;;;5.20;2.20;;;;;;;;;;5015242;28;20033;-59
2023/03/11 05:29:28;;;;;;;12.73;2.33;;;;;;;;;;5024209;28;20030;-59
2023/03/11 05:31:53;;;;;;;3.97;2.42;;;;;;;;;;5014056;28;20309;-61
2023/03/11 05:34:19;;;;;;;5.65;2.53;;;;;;;;;;5017980;28;20048;-59
2023/03/11 05:36:44;;;;;;;4.85;2.28;;;;;;;;;;5023287;28;20481;-61
2023/03/11 05:39:11;;;;;;;10.07;2.50;;;;;;;;;;5013474;28;20171;-59
2023/03/11 05:41:36;;;;;;;9.40;2.42;;;;;;;;;;5021041;28;20370;-60
2023/03/11 05:44:02;;;;;;;13.55;2.67;;;;;;;;;;5014283;28;20048;-61
2023/03/11 05:46:27;;;;;;;6.43;2.15;;;;;;;;;;5015556;28;20022;-59
2023/03/11 05:48:53;;;;;;;5.28;2.67;;;;;;;;;;5016746;28;20136;-64
2023/03/11 05:51:18;;;;;;;7.32;2.55;;;;;;;;;;5013457;28;20025;-61
2023/03/11 05:53:47;;;;;;;6.30;2.60;;;;;;;;;;5018381;28;20025;-61
2023/03/11 05:56:15;;;;;;;5.38;2.80;;;;;;;;;;5011541;28;20034;-61
2023/03/11 05:58:41;;;;;;;13.45;2.63;;;;;;;;;;4996780;28;20025;-59
2023/03/11 06:01:08;;;;;;;7.60;2.50;;;;;;;;;;5000425;28;20450;-61
2023/03/11 06:03:33;;;;;;;4.07;2.28;;;;;;;;;;5022455;28;20057;-61
2023/03/11 06:05:59;;;;;;;5.60;2.80;;;;;;;;;;5018200;28;20029;-59
2023/03/11 06:08:24;;;;;;;5.93;2.63;;;;;;;;;;5014272;28;20124;-59
2023/03/11 06:10:49;;;;;;;9.23;2.60;;;;;;;;;;5006384;28;20749;-60
2023/03/11 06:13:16;;;;;;;6.47;2.60;;;;;;;;;;5019326;28;20327;-61
2023/03/11 06:15:47;;;;;;;5.75;2.30;;;;;;;;;;5014172;28;20033;-60
2023/03/11 06:18:13;;;;;;;3.17;2.20;;;;;;;;;;5014879;28;20045;-60
2023/03/11 06:20:39;;;;;;;8.75;2.60;;;;;;;;;;5016417;28;20477;-63
2023/03/11 06:23:04;;;;;;;6.03;2.45;;;;;;;;;;5014773;28;20059;-63
2023/03/11 06:25:29;;;;;;;5.30;2.40;;;;;;;;;;5021582;28;20030;-59
2023/03/11 06:27:55;;;;;;;8.73;3.00;;;;;;;;;;5011356;28;20026;-62
2023/03/11 06:30:22;;;;;;;6.85;2.85;;;;;;;;;;5010693;28;20029;-62
2023/03/11 06:32:55;;;;;;;14.55;3.10;;;;;;;;;;5017654;28;20286;-60
2023/03/11 06:35:20;;;;;;;8.82;2.75;;;;;;;;;;5011459;28;20410;-59
2023/03/11 06:37:45;;;;;;;8.45;2.90;;;;;;;;;;5031604;28;20402;-62
2023/03/11 06:40:11;;;;;;;6.85;3.00;;;;;;;;;;5010154;28;20040;-62
2023/03/11 06:42:36;;;;;;;9.27;2.85;;;;;;;;;;5022597;28;20131;-60
2023/03/11 06:45:03;;;;;;;4.63;2.15;;;;;;;;;;5014227;28;20041;-62
2023/03/11 06:47:29;;;;;;;7.60;2.80;;;;;;;;;;5016712;28;20033;-60
2023/03/11 06:49:54;;;;;;;9.45;2.65;;;;;;;;;;5020946;28;20445;-59
2023/03/11 06:52:19;;;;;;;9.40;2.50;;;;;;;;;;5022439;28;20041;-61
2023/03/11 06:54:45;;;;;;;6.28;2.60;;;;;;;;;;5004157;28;20037;-59
2023/03/11 06:57:12;;;;;;;8.10;2.95;;;;;;;;;;5022467;28;20029;-60
2023/03/11 06:59:38;;;;;;;6.90;3.00;;;;;;;;;;5022594;28;20030;-60
2023/03/11 07:02:05;;;;;;;7.60;3.05;;;;;;;;;;5034755;28;20036;-60
2023/03/11 07:04:31;;;;;;;11.00;2.80;;;;;;;;;;5020636;28;20045;-61
2023/03/11 07:06:56;;;;;;;12.98;3.50;;;;;;;;;;5022960;28;20065;-61
2023/03/11 07:09:24;;;;;;;7.88;3.17;;;;;;;;;;5021826;28;20401;-60
2023/03/11 07:11:49;;;;;;;;;;;;;;;;;;5024210;28;20059;-60
2023/03/11 07:14:21;;;;;;;5.78;2.42;;;;;;;;;;5023648;28;19921;-62
2023/03/11 07:16:51;;;;;;;6.43;2.80;;;;;;;;;;5021400;28;20030;-61
2023/03/11 07:19:30;;;;;;;7.43;2.70;;;;;;;;;;5021718;28;20074;-61
2023/03/11 07:21:56;;;;;;;11.00;3.15;;;;;;;;;;5023517;28;20037;-61
2023/03/11 07:24:21;;;;;;;6.25;2.70;;;;;;;;;;5023395;28;20154;-60
2023/03/11 07:26:46;;;;;;;5.70;2.78;;;;;;;;;;5022627;28;20382;-61
2023/03/11 07:29:12;;;;;;;8.20;2.92;;;;;;;;;;5024610;28;20575;-61
2023/03/11 07:31:37;;;;;;;21.15;3.10;;;;;;;;;;5024592;28;20030;-61
2023/03/11 07:34:04;;;;;;;15.07;3.63;;;;;;;;;;5021840;28;20041;-62
2023/03/11 07:36:30;;;;;;;8.77;3.47;;;;;;;;;;5022472;28;20041;-60
2023/03/11 07:39:01;;;;;;;11.65;3.13;;;;;;;;;;5023248;28;20041;-60
2023/03/11 07:41:27;;;;;;;6.80;2.72;;;;;;;;;;5023718;28;20033;-60
2023/03/11 07:43:54;;;;;;;8.90;3.20;;;;;;;;;;5024626;28;20108;-63
2023/03/11 07:46:21;;;;;;;12.40;2.85;;;;;;;;;;5024630;28;20037;-61
2023/03/11 07:48:47;;;;;;;9.73;2.60;;;;;;;;;;5027824;28;20037;-59
2023/03/11 07:51:14;;;;;;;7.32;2.83;;;;;;;;;;5025713;28;20025;-60
2023/03/11 07:53:39;;;;;;;6.70;2.63;;;;;;;;;;5013724;28;20056;-62
2023/03/11 07:56:05;;;;;;;10.05;3.35;;;;;;;;;;5017335;28;20056;-63
2023/03/11 07:58:30;;;;;;;8.27;2.70;;;;;;;;;;5027890;28;20041;-60
2023/03/11 08:00:56;;;;;;;7.80;2.53;;;;;;;;;;5026395;28;20040;-61
2023/03/11 08:03:24;;;;;;;7.20;3.15;;;;;;;;;;5028012;28;20037;-60
2023/03/11 08:05:50;;;;;;;9.43;3.05;;;;;;;;;;5027077;28;20545;-61
2023/03/11 08:08:15;;;;;;;9.70;3.05;;;;;;;;;;5026669;28;20111;-61
2023/03/11 08:10:40;;;;;;;8.30;2.60;;;;;;;;;;5026366;28;20029;-62
2023/03/11 08:13:06;;;;;;;7.20;2.85;;;;;;;;;;5027461;28;20104;-61
2023/03/11 08:15:31;;;;;;;7.53;2.50;;;;;;;;;;5025586;28;20037;-63
2023/03/11 08:17:56;;;;;;;6.70;2.35;;;;;;;;;;5025990;28;20029;-60
2023/03/11 08:20:21;;;;;;;12.02;3.03;;;;;;;;;;5027106;28;20032;-61
2023/03/11 08:22:47;;;;;;;9.82;3.08;;;;;;;;;;5024680;28;20368;-60
2023/03/11 08:25:12;;;;;;;5.85;3.05;;;;;;;;;;5026662;28;20061;-60
2023/03/11 08:27:39;;;;;;;5.97;2.65;;;;;;;;;;5027167;28;20083;-59
2023/03/11 08:30:05;;;;;;;5.88;3.00;;;;;;;;;;5027461;28;20162;-61
2023/03/11 08:32:30;;;;;;;9.00;2.72;;;;;;;;;;5027876;28;20037;-59
2023/03/11 08:34:56;;;;;;;8.95;2.75;;;;;;;;;;5024457;28;20086;-62
2023/03/11 08:37:21;;;;;;;10.55;2.92;;;;;;;;;;5025031;28;20124;-59
2023/03/11 08:39:46;;;;;;;11.85;3.35;;;;;;;;;;5025736;28;20033;-60
2023/03/11 08:42:12;;;;;;;13.27;2.85;;;;;;;;;;5023531;28;20030;-61
2023/03/11 08:44:37;;;;;;;10.85;3.03;;;;;;;;;;5025748;28;20033;-61
2023/03/11 08:47:02;;;;;;;10.30;3.42;;;;;;;;;;5024807;28;20592;-60
2023/03/11 08:49:28;;;;;;;7.65;2.75;;;;;;;;;;5030401;28;20033;-60
2023/03/11 08:51:53;;;;;;;4.30;2.33;;;;;;;;;;5027560;28;20121;-60
2023/03/11 08:54:19;;;;;;;12.30;2.40;;;;;;;;;;5022208;28;20465;-60
2023/03/11 08:56:46;;;;;;;11.23;2.70;;;;;;;;;;5026227;28;20104;-60
2023/03/11 08:59:11;;;;;;;;;;;;;;;;;;5025507;28;20025;-59
2023/03/11 09:01:37;;;;;;;7.17;2.20;;;;;;;;;;5023529;28;19920;-61
2023/03/11 09:04:02;;;;;;;10.32;2.90;;;;;;;;;;5026721;28;20739;-60
2023/03/11 09:06:29;;;;;;;6.10;2.40;;;;;;;;;;5023539;28;20041;-61
2023/03/11 09:08:54;;;;;;;5.80;2.65;;;;;;;;;;5026045;28;20033;-60
2023/03/11 09:11:21;;;;;;;9.15;3.20;;;;;;;;;;5038916;28;20048;-61
2023/03/11 09:13:47;;;;;;;6.40;3.20;;;;;;;;;;5026518;28;20437;-62
2023/03/11 09:16:22;;;;;;;15.63;3.70;;;;;;;;;;5026542;28;20484;-62
2023/03/11 09:18:48;;;;;;;9.18;2.65;;;;;;;;;;5023734;28;20038;-60
2023/03/11 09:21:13;;;;;;;7.82;2.20;;;;;;;;;;5026782;28;20033;-60
2023/03/11 09:23:38;;;;;;;6.07;2.90;;;;;;;;;;5025897;28;20053;-62
2023/03/11 09:26:04;;;;;;;9.43;2.50;;;;;;;;;;5027265;28;20037;-62
2023/03/11 09:28:29;;;;;;;6.05;2.35;;;;;;;;;;5025232;28;20061;-61
2023/03/11 09:30:55;;;;;;;4.22;2.20;;;;;;;;;;5027784;28;20029;-61
2023/03/11 09:33:20;;;;;;;10.73;2.60;;;;;;;;;;5027782;28;20033;-60
2023/03/11 09:35:46;;;;;;;11.30;2.47;;;;;;;;;;5026124;28;20495;-60
2023/03/11 09:38:11;;;;;;;8.38;2.65;;;;;;;;;;5027928;28;20029;-64
2023/03/11 09:40:46;;;;;;;6.00;2.25;;;;;;;;;;5040019;28;20036;-60
2023/03/11 09:43:11;;;;;;;7.97;2.53;;;;;;;;;;5024417;28;20064;-62
2023/03/11 09:45:39;;;;;;;7.32;2.25;;;;;;;;;;5024646;28;20037;-60
2023/03/11 09:48:43;;;;;;;7.45;2.50;;;;;;;;;;5026535;28;20033;-63
2023/03/11 09:51:28;;;;;;;6.07;2.38;;;;;;;;;;5002888;28;20029;-60
2023/03/11 09:53:56;;;;;;;7.22;2.30;;;;;;;;;;5003056;28;20042;-60
2023/03/11 09:56:21;;;;;;;7.35;2.40;;;;;;;;;;5014564;28;20041;-61
2023/03/11 09:58:51;;;;;;;10.05;2.70;;;;;;;;;;5021087;28;20049;-64
2023/03/11 10:01:17;;;;;;;9.13;2.55;;;;;;;;;;5025947;28;20026;-61
2023/03/11 10:03:43;;;;;;;8.48;2.33;;;;;;;;;;5025040;28;20032;-60
2023/03/11 10:06:22;;;;;;;5.45;2.38;;;;;;;;;;5025438;28;20013;-61
2023/03/11 10:08:51;;;;;;;11.93;2.60;;;;;;;;;;5021417;28;20486;-61
2023/03/11 10:11:44;;;;;;;10.02;2.95;;;;;;;;;;5024373;28;20467;-61
2023/03/11 10:14:21;;;;;;;7.38;2.67;;;;;;;;;;5023415;28;20041;-61
2023/03/11 10:16:46;;;;;;;;;;;;;;;;;;5013235;28;20037;-60
2023/03/11 10:19:11;;;;;;;10.20;2.80;;;;;;;;;;5023221;28;19919;-61
2023/03/11 10:21:40;;;;;;;6.30;3.03;;;;;;;;;;5025385;28;20279;-61
2023/03/11 10:24:13;;;;;;;10.02;2.35;;;;;;;;;;5023569;28;20079;-60
2023/03/11 10:26:50;;;;;;;5.85;2.40;;;;;;;;;;5038825;28;20041;-62
2023/03/11 10:29:21;;;;;;;6.55;2.70;;;;;;;;;;5022939;28;20025;-61
2023/03/11 10:32:25;;;;;;;7.97;2.72;;;;;;;;;;5023420;28;20065;-61
2023/03/11 10:34:57;;;;;;;6.05;2.30;;;;;;;;;;5001594;28;20049;-61
2023/03/11 10:37:25;;;;;;;6.40;2.08;;;;;;;;;;5000704;28;20040;-63
2023/03/11 10:39:50;;;;;;;4.25;2.20;;;;;;;;;;5001692;28;20125;-64
2023/03/11 10:42:21;;;;;;;2.90;1.92;;;;;;;;;;5024703;28;20116;-61
2023/03/11 10:44:46;;;;;;;6.70;2.50;;;;;;;;;;5023046;28;20128;-61
2023/03/11 10:47:19;;;;;;;4.55;2.00;;;;;;;;;;5022988;28;20104;-60
2023/03/11 10:49:44;;;;;;;5.20;1.98;;;;;;;;;;5022464;28;20037;-61
2023/03/11 10:52:10;;;;;;;5.75;2.00;;;;;;;;;;5025022;28;20509;-60
2023/03/11 10:54:38;;;;;;;6.03;2.13;;;;;;;;;;5023022;28;20048;-62
2023/03/11 10:57:13;;;;;;;8.70;2.25;;;;;;;;;;5025583;28;20076;-60
2023/03/11 10:59:49;;;;;;;5.68;2.40;;;;;;;;;;5023797;28;20029;-60
2023/03/11 11:02:24;;;;;;;6.72;2.20;;;;;;;;;;5023428;28;20120;-60
2023/03/11 11:05:02;;;;;;;4.95;2.00;;;;;;;;;;5025154;28;20037;-59
2023/03/11 11:07:29;;;;;;;5.07;1.83;;;;;;;;;;5025728;28;20033;-60
2023/03/11 11:10:13;;;;;;;5.78;2.00;;;;;;;;;;5024410;28;20399;-64
2023/03/11 11:12:55;;;;;;;3.63;2.00;;;;;;;;;;5023525;28;20032;-59
2023/03/11 11:15:21;;;;;;;5.20;1.90;;;;;;;;;;5020822;28;20033;-62
2023/03/11 11:17:46;;;;;;;3.83;1.97;;;;;;;;;;5027726;28;20064;-63
2023/03/11 11:20:15;;;;;;;6.85;2.20;;;;;;;;;;5022586;28;20050;-61
2023/03/11 11:22:46;;;;;;;4.90;1.90;;;;;;;;;;5021081;28;20549;-62
2023/03/11 11:25:32;;;;;;;3.53;1.67;;;;;;;;;;5023897;28;20148;-61
2023/03/11 11:28:04;;;;;;;4.82;1.90;;;;;;;;;;5024041;28;20572;-60
2023/03/11 11:30:29;;;;;;;4.65;2.33;;;;;;;;;;5023596;28;20040;-61
2023/03/11 11:32:55;;;;;;;8.38;2.20;;;;;;;;;;5022886;28;20033;-59
2023/03/11 11:35:23;;;;;;;3.92;2.00;;;;;;;;;;5023479;28;20033;-61
2023/03/11 11:37:53;;;;;;;6.70;2.30;;;;;;;;;;5038057;28;20378;-60
2023/03/11 11:40:26;;;;;;;5.68;2.22;;;;;;;;;;5022700;28;20025;-61
2023/03/11 11:42:53;;;;;;;5.80;2.30;;;;;;;;;;5022501;28;20034;-63
2023/03/11 11:45:31;;;;;;;4.57;2.42;;;;;;;;;;5022535;28;20061;-60
2023/03/11 11:48:03;;;;;;;4.47;2.00;;;;;;;;;;5025746;28;20072;-62
2023/03/11 11:50:31;;;;;;;4.18;2.08;;;;;;;;;;5022343;28;20041;-62
2023/03/11 11:53:00;;;;;;;10.68;2.35;;;;;;;;;;5023189;28;20060;-62
2023/03/11 11:55:27;;;;;;;4.82;1.80;;;;;;;;;;5023715;28;20485;-62
2023/03/11 11:57:53;;;;;;;6.97;2.20;;;;;;;;;;5024207;28;20029;-61
2023/03/11 12:00:20;;;;;;;4.90;2.20;;;;;;;;;;5022582;28;20500;-64
2023/03/11 12:03:00;;;;;;;3.63;1.92;;;;;;;;;;5023557;28;20080;-65
2023/03/11 12:05:31;;;;;;;4.22;2.10;;;;;;;;;;5023738;28;20044;-64
2023/03/11 12:08:08;;;;;;;11.85;2.55;;;;;;;;;;5022735;28;20068;-62
2023/03/11 12:10:43;;;;;;;8.00;2.20;;;;;;;;;;5022849;28;20044;-60
2023/03/11 12:13:29;;;;;;;7.03;2.20;;;;;;;;;;5023702;28;20029;-62
2023/03/11 12:16:13;;;;;;;6.47;2.00;;;;;;;;;;5024183;28;20064;-60
2023/03/11 12:18:49;;;;;;;5.95;1.90;;;;;;;;;;5023906;28;20537;-62
2023/03/11 12:21:31;;;;;;;3.60;1.90;;;;;;;;;;5022177;28;20040;-61
2023/03/11 12:24:12;;;;;;;4.82;2.10;;;;;;;;;;5022486;28;20183;-60
2023/03/11 12:26:39;;;;;;;4.03;1.80;;;;;;;;;;5023482;28;20409;-60
2023/03/11 12:29:15;;;;;;;5.50;1.83;;;;;;;;;;5022325;28;20037;-64
2023/03/11 12:31:41;;;;;;;6.53;2.15;;;;;;;;;;5012981;28;20682;-61
2023/03/11 12:34:09;;;;;;;9.27;3.30;;;;;;;;;;5025578;28;20035;-62
2023/03/11 12:36:37;;;;;;;6.13;2.40;;;;;;;;;;5023925;28;20091;-62
2023/03/11 12:39:05;;;;;;;7.07;2.20;;;;;;;;;;5024376;28;20033;-61
2023/03/11 12:41:38;;;;;;;6.50;2.20;;;;;;;;;;5028769;28;20033;-60
2023/03/11 12:44:04;;;;;;;6.38;1.88;;;;;;;;;;5029268;28;20466;-61
2023/03/11 12:46:48;;;;;;;7.82;2.80;;;;;;;;;;5025406;28;20048;-61
2023/03/11 12:49:13;;;;;;;5.53;2.53;;;;;;;;;;5023361;28;20026;-62
2023/03/11 12:51:39;;;;;;;3.92;2.00;;;;;;;;;;5027894;28;20830;-60
2023/03/11 12:54:20;;;;;;;4.63;1.88;;;;;;;;;;5026815;28;20044;-63
2023/03/11 12:56:50;;;;;;;6.93;2.08;;;;;;;;;;5028567;28;20041;-60
2023/03/11 12:59:30;;;;;;;7.90;2.05;;;;;;;;;;5026779;28;20041;-62
2023/03/11 13:02:05;;;;;;;7.45;2.22;;;;;;;;;;5020741;28;20034;-62
2023/03/11 13:04:37;;;;;;;4.38;2.00;;;;;;;;;;5016859;28;20606;-64
2023/03/11 13:07:21;;;;;;;6.35;2.17;;;;;;;;;;5019192;28;20115;-66
2023/03/11 13:10:01;;;;;;;6.15;1.83;;;;;;;;;;5020554;28;20646;-60
2023/03/11 13:12:38;;;;;;;7.90;1.73;;;;;;;;;;5015151;28;20499;-65
2023/03/11 13:15:03;;;;;;;;;;;;;;;;;;5020902;28;20029;-60
2023/03/11 13:17:30;;;;;;;5.73;1.67;;;;;;;;;;5021569;28;19912;-65
2023/03/11 13:19:56;;;;;;;4.75;1.80;;;;;;;;;;5018199;28;20293;-62
2023/03/11 13:22:42;;;;;;;6.43;1.90;;;;;;;;;;5021986;28;20057;-64
2023/03/11 13:25:25;;;;;;;5.68;2.72;;;;;;;;;;5029246;28;20028;-60
2023/03/11 13:27:54;;;;;;;4.50;2.03;;;;;;;;;;5022691;28;20033;-61
2023/03/11 13:30:23;;;;;;;5.18;1.80;;;;;;;;;;5020548;28;20037;-63
2023/03/11 13:33:11;;;;;;;4.45;1.83;;;;;;;;;;5011057;28;20052;-61
2023/03/11 13:35:40;;;;;;;5.65;1.70;;;;;;;;;;5023181;28;20037;-61
2023/03/11 13:38:17;;;;;;;5.70;2.00;;;;;;;;;;5026588;28;20026;-61
2023/03/11 13:40:44;;;;;;;3.80;1.77;;;;;;;;;;5022219;28;20111;-63
2023/03/11 13:43:20;;;;;;;4.38;1.80;;;;;;;;;;5019352;28;20116;-61
2023/03/11 13:46:04;;;;;;;5.15;1.75;;;;;;;;;;5020687;28;20456;-61
2023/03/11 13:48:39;;;;;;;6.63;1.83;;;;;;;;;;5019537;28;20029;-61
2023/03/11 13:51:15;;;;;;;5.75;1.90;;;;;;;;;;5019735;28;20029;-63
2023/03/11 13:53:46;;;;;;;8.75;2.88;;;;;;;;;;5019123;28;20045;-64
2023/03/11 13:56:21;;;;;;;5.88;1.98;;;;;;;;;;5022816;28;20037;-61
2023/03/11 13:58:46;;;;;;;4.03;1.80;;;;;;;;;;5022323;28;20509;-64
2023/03/11 14:01:16;;;;;;;5.55;1.77;;;;;;;;;;5022769;28;20675;-61
2023/03/11 14:03:42;;;;;;;4.75;1.63;;;;;;;;;;5023302;28;20057;-64
2023/03/11 14:06:10;;;;;;;5.43;1.90;;;;;;;;;;5022750;28;20022;-61
2023/03/11 14:08:38;;;;;;;6.07;1.70;;;;;;;;;;5020304;28;20549;-63
2023/03/11 14:11:09;;;;;;;3.70;1.80;;;;;;;;;;5023238;28;20488;-60
2023/03/11 14:13:39;;;;;;;4.15;1.67;;;;;;;;;;5021644;28;20663;-62
2023/03/11 14:16:09;;;;;;;5.40;1.77;;;;;;;;;;5020967;28;20108;-61
2023/03/11 14:18:36;;;;;;;4.63;1.73;;;;;;;;;;5020434;28;20029;-60
2023/03/11 14:21:03;;;;;;;5.82;2.00;;;;;;;;;;5019174;28;20029;-61
2023/03/11 14:23:32;;;;;;;4.78;1.80;;;;;;;;;;5022120;28;20037;-62
2023/03/11 14:25:58;;;;;;;4.32;1.60;;;;;;;;;;5020254;28;20036;-61
2023/03/11 14:28:25;;;;;;;5.15;1.63;;;;;;;;;;5024246;28;20120;-61
2023/03/11 14:30:58;;;;;;;4.53;1.58;;;;;;;;;;5023982;28;20402;-61
2023/03/11 14:33:23;;;;;;;3.75;1.50;;;;;;;;;;5021599;28;20478;-63
2023/03/11 14:35:54;;;;;;;4.40;1.70;;;;;;;;;;5007394;28;20124;-64
2023/03/11 14:38:20;;;;;;;4.82;1.65;;;;;;;;;;5014264;28;20037;-62
2023/03/11 14:40:48;;;;;;;5.65;1.73;;;;;;;;;;5010050;28;20971;-63
2023/03/11 14:43:14;;;;;;;5.75;1.60;;;;;;;;;;5015675;28;20087;-63
2023/03/11 14:45:41;;;;;;;5.95;2.33;;;;;;;;;;5014512;28;20433;-63
2023/03/11 14:48:32;;;;;;;5.00;1.88;;;;;;;;;;5020118;28;20030;-64
2023/03/11 14:50:59;;;;;;;4.55;1.63;;;;;;;;;;5010662;28;20029;-62